Time;durP1;ratioP1;P1;durP2;ratioP2;P2;SDS_P1;SDS_P2;PMS_P1;PMS_P2;Temp;Humidity;BMP_temperature;BMP_pressure;BME280_temperature;BME280_humidity;BME280_pressure;Samples;Min_cycle;Max_cycle;Signal;HPM_P1;HPM_P2
2022/10/19 00:02:35;;;;;;;89.28;84.43;;;;;;;;;;10103165;28;20051;-72
2022/10/19 00:07:32;;;;;;;86.72;82.35;;;;;;;;;;10089362;28;20043;-72
2022/10/19 00:12:28;;;;;;;85.13;80.18;;;;;;;;;;10103481;28;20133;-72
2022/10/19 00:17:25;;;;;;;78.13;73.50;;;;;;;;;;10092227;28;20053;-71
2022/10/19 00:22:21;;;;;;;79.45;74.88;;;;;;;;;;10102752;28;20047;-71
2022/10/19 00:27:17;;;;;;;76.68;72.25;;;;;;;;;;10099411;28;20047;-71
2022/10/19 00:32:13;;;;;;;84.45;79.85;;;;;;;;;;10101462;28;20046;-71
2022/10/19 00:37:09;;;;;;;77.78;73.60;;;;;;;;;;10090155;28;20051;-72
2022/10/19 00:42:09;;;;;;;82.18;77.80;;;;;;;;;;10091191;28;20038;-71
2022/10/19 00:47:06;;;;;;;85.95;81.03;;;;;;;;;;10092061;28;20420;-72
2022/10/19 00:52:04;;;;;;;83.68;79.63;;;;;;;;;;10112701;28;20058;-71
2022/10/19 00:57:02;;;;;;;75.53;71.47;;;;;;;;;;10128775;28;20055;-71
2022/10/19 01:01:59;;;;;;;76.88;72.35;;;;;;;;;;10089966;28;20409;-72
2022/10/19 01:06:56;;;;;;;71.60;67.85;;;;;;;;;;10123593;28;99924;-71
2022/10/19 01:11:59;;;;;;;67.38;63.67;;;;;;;;;;10140506;28;20138;-71
2022/10/19 01:17:02;;;;;;;60.25;56.75;;;;;;;;;;10142221;28;20508;-71
2022/10/19 01:22:05;;;;;;;57.85;54.92;;;;;;;;;;10137958;28;20053;-71
2022/10/19 01:27:20;;;;;;;51.38;48.00;;;;;;;;;;10101620;28;20079;-71
2022/10/19 01:32:26;;;;;;;48.47;45.95;;;;;;;;;;10097196;28;20062;-71
2022/10/19 01:37:32;;;;;;;50.85;47.35;;;;;;;;;;10097317;28;20059;-71
2022/10/19 01:42:29;;;;;;;45.97;43.25;;;;;;;;;;10108243;28;20042;-71
2022/10/19 01:47:29;;;;;;;42.40;39.75;;;;;;;;;;10102686;28;20417;-71
2022/10/19 01:52:26;;;;;;;48.03;45.20;;;;;;;;;;10103778;28;20055;-71
2022/10/19 01:57:25;;;;;;;43.75;40.88;;;;;;;;;;10131252;28;20046;-72
2022/10/19 02:02:22;;;;;;;45.28;42.50;;;;;;;;;;10102312;28;20051;-71
2022/10/19 02:07:19;;;;;;;43.65;41.15;;;;;;;;;;10100177;28;20043;-71
2022/10/19 02:12:16;;;;;;;40.05;37.78;;;;;;;;;;10093398;28;20047;-72
2022/10/19 02:17:14;;;;;;;40.63;38.17;;;;;;;;;;10094114;28;20082;-71
2022/10/19 02:22:12;;;;;;;36.90;34.60;;;;;;;;;;10087238;28;20051;-71
2022/10/19 02:27:08;;;;;;;33.45;31.00;;;;;;;;;;10096558;28;20046;-71
2022/10/19 02:32:05;;;;;;;26.73;24.90;;;;;;;;;;10099184;28;20055;-71
2022/10/19 02:37:01;;;;;;;25.17;23.45;;;;;;;;;;10099906;28;20051;-71
2022/10/19 02:42:00;;;;;;;21.23;19.83;;;;;;;;;;10101716;28;20065;-71
2022/10/19 02:47:01;;;;;;;21.45;19.40;;;;;;;;;;10099754;28;20042;-71
2022/10/19 02:51:59;;;;;;;19.10;17.00;;;;;;;;;;10113375;28;20053;-71
2022/10/19 02:56:55;;;;;;;18.55;16.85;;;;;;;;;;10124706;28;20399;-71
2022/10/19 03:01:51;;;;;;;17.23;15.43;;;;;;;;;;10152461;28;20386;-71
2022/10/19 03:06:48;;;;;;;17.13;13.80;;;;;;;;;;10152827;28;20054;-71
2022/10/19 03:11:44;;;;;;;12.38;11.18;;;;;;;;;;10139403;28;20564;-71
2022/10/19 03:16:40;;;;;;;13.73;10.50;;;;;;;;;;10111866;28;20043;-70
2022/10/19 03:21:36;;;;;;;12.27;9.90;;;;;;;;;;10107931;28;20046;-71
2022/10/19 03:26:33;;;;;;;13.68;9.45;;;;;;;;;;10097361;28;20064;-71
2022/10/19 03:31:29;;;;;;;11.50;9.73;;;;;;;;;;10123542;28;20064;-71
2022/10/19 03:36:30;;;;;;;11.95;9.73;;;;;;;;;;10128214;28;20043;-71
2022/10/19 03:41:27;;;;;;;10.88;9.75;;;;;;;;;;10104157;28;20042;-71
2022/10/19 03:46:24;;;;;;;12.48;10.50;;;;;;;;;;10111976;28;20554;-71
2022/10/19 03:51:21;;;;;;;13.98;10.80;;;;;;;;;;10146436;28;20062;-71
2022/10/19 03:56:19;;;;;;;12.05;10.55;;;;;;;;;;10114508;28;20631;-70
2022/10/19 04:01:16;;;;;;;13.20;11.90;;;;;;;;;;10131042;28;20417;-70
2022/10/19 04:06:14;;;;;;;11.88;10.77;;;;;;;;;;10108716;28;20050;-71
2022/10/19 04:11:17;;;;;;;11.70;10.60;;;;;;;;;;10159336;28;20486;-70
2022/10/19 04:16:14;;;;;;;12.02;10.88;;;;;;;;;;10146009;28;20714;-71
2022/10/19 04:21:19;;;;;;;12.75;11.57;;;;;;;;;;10104992;28;20059;-71
2022/10/19 04:26:16;;;;;;;12.45;11.02;;;;;;;;;;10099536;28;20051;-71
2022/10/19 04:31:12;;;;;;;11.43;10.45;;;;;;;;;;10106503;28;20046;-71
2022/10/19 04:36:10;;;;;;;13.10;11.68;;;;;;;;;;10138288;28;20049;-71
2022/10/19 04:41:08;;;;;;;12.85;11.63;;;;;;;;;;10101072;28;20042;-71
2022/10/19 04:46:05;;;;;;;15.57;13.57;;;;;;;;;;10089487;28;20437;-71
2022/10/19 04:51:02;;;;;;;13.18;11.88;;;;;;;;;;10092569;28;20051;-71
2022/10/19 04:56:03;;;;;;;12.77;11.52;;;;;;;;;;10097575;28;20046;-71
2022/10/19 05:01:05;;;;;;;13.25;12.20;;;;;;;;;;10092260;28;20042;-71
2022/10/19 05:06:02;;;;;;;16.20;12.57;;;;;;;;;;10105879;28;20050;-71
2022/10/19 05:11:17;;;;;;;14.13;12.75;;;;;;;;;;10114067;28;20413;-71
2022/10/19 05:16:14;;;;;;;13.82;12.45;;;;;;;;;;10131796;28;20058;-71
2022/10/19 05:21:12;;;;;;;15.95;14.57;;;;;;;;;;10127431;28;20062;-71
2022/10/19 05:26:10;;;;;;;16.80;15.13;;;;;;;;;;10125015;28;20059;-71
2022/10/19 05:31:07;;;;;;;19.52;14.70;;;;;;;;;;10091656;28;20505;-71
2022/10/19 05:36:20;;;;;;;16.30;14.52;;;;;;;;;;10108845;28;20130;-71
2022/10/19 05:41:17;;;;;;;15.80;14.60;;;;;;;;;;10146049;28;20508;-71
2022/10/19 05:46:16;;;;;;;16.63;15.32;;;;;;;;;;10142849;28;20054;-71
2022/10/19 05:51:14;;;;;;;19.88;14.63;;;;;;;;;;10150886;28;20046;-71
2022/10/19 05:56:18;;;;;;;17.73;15.77;;;;;;;;;;10152763;28;20057;-71
2022/10/19 06:01:15;;;;;;;16.35;15.05;;;;;;;;;;10150982;28;20133;-71
2022/10/19 06:06:11;;;;;;;21.25;16.30;;;;;;;;;;10152214;28;20043;-71
2022/10/19 06:11:18;;;;;;;17.23;16.00;;;;;;;;;;10166965;28;20127;-71
2022/10/19 06:16:14;;;;;;;17.85;16.10;;;;;;;;;;10162466;28;20054;-71
2022/10/19 06:21:15;;;;;;;18.23;15.38;;;;;;;;;;10152680;28;20057;-71
2022/10/19 06:26:12;;;;;;;17.02;15.50;;;;;;;;;;10157237;28;20046;-71
2022/10/19 06:31:09;;;;;;;21.45;17.00;;;;;;;;;;10154858;28;20054;-71
2022/10/19 06:36:10;;;;;;;19.85;18.05;;;;;;;;;;10150962;28;20050;-71
2022/10/19 06:41:07;;;;;;;20.20;18.30;;;;;;;;;;10156753;28;20061;-71
2022/10/19 06:46:04;;;;;;;20.67;19.00;;;;;;;;;;10146948;28;20153;-71
2022/10/19 06:51:02;;;;;;;19.73;17.85;;;;;;;;;;10108719;28;20055;-71
2022/10/19 06:56:02;;;;;;;19.70;18.08;;;;;;;;;;10100982;28;20050;-71
2022/10/19 07:00:59;;;;;;;19.15;17.17;;;;;;;;;;10098634;28;20417;-71
2022/10/19 07:05:57;;;;;;;21.48;19.27;;;;;;;;;;10098943;28;20066;-71
2022/10/19 07:10:55;;;;;;;22.48;20.17;;;;;;;;;;10115136;28;20057;-71
2022/10/19 07:15:59;;;;;;;24.05;22.00;;;;;;;;;;10167735;28;20050;-71
2022/10/19 07:20:58;;;;;;;25.17;22.48;;;;;;;;;;10149850;28;20052;-71
2022/10/19 07:25:59;;;;;;;25.45;22.98;;;;;;;;;;10153577;28;20049;-71
2022/10/19 07:30:56;;;;;;;24.63;22.58;;;;;;;;;;10135239;28;20042;-71
2022/10/19 07:35:57;;;;;;;23.92;21.92;;;;;;;;;;10104321;28;20047;-71
2022/10/19 07:41:04;;;;;;;23.55;21.23;;;;;;;;;;10108266;28;20050;-70
2022/10/19 07:46:04;;;;;;;21.73;19.73;;;;;;;;;;10109437;28;20471;-70
2022/10/19 07:51:00;;;;;;;20.23;18.55;;;;;;;;;;10146943;28;20057;-70
2022/10/19 07:56:04;;;;;;;20.35;18.67;;;;;;;;;;10121989;28;20065;-71
2022/10/19 08:01:01;;;;;;;19.67;18.10;;;;;;;;;;10113964;28;20057;-70
2022/10/19 08:06:02;;;;;;;21.77;19.83;;;;;;;;;;10120499;28;20046;-70
2022/10/19 08:11:05;;;;;;;18.65;16.95;;;;;;;;;;10150780;28;20043;-70
2022/10/19 08:16:01;;;;;;;19.58;17.55;;;;;;;;;;10160315;28;20057;-71
2022/10/19 08:21:00;;;;;;;19.42;17.60;;;;;;;;;;10160247;28;20046;-71
2022/10/19 08:25:58;;;;;;;19.92;18.40;;;;;;;;;;10152742;28;20125;-71
2022/10/19 08:30:57;;;;;;;20.98;18.77;;;;;;;;;;10147495;28;20053;-71
2022/10/19 08:35:53;;;;;;;17.90;16.38;;;;;;;;;;10151600;28;20042;-71
2022/10/19 08:40:50;;;;;;;16.20;14.85;;;;;;;;;;10142625;28;20049;-70
2022/10/19 08:45:50;;;;;;;16.40;15.00;;;;;;;;;;10142662;28;20421;-71
2022/10/19 08:50:47;;;;;;;14.75;12.73;;;;;;;;;;10139984;28;20421;-71
2022/10/19 08:55:57;;;;;;;14.05;12.15;;;;;;;;;;10099720;28;20505;-70
2022/10/19 09:01:03;;;;;;;13.95;12.80;;;;;;;;;;10096221;28;20049;-71
2022/10/19 09:06:11;;;;;;;16.25;13.60;;;;;;;;;;10100933;28;20057;-71
2022/10/19 09:11:08;;;;;;;22.45;15.85;;;;;;;;;;10116548;28;20423;-71
2022/10/19 09:16:05;;;;;;;14.40;12.95;;;;;;;;;;10147711;28;20090;-71
2022/10/19 09:21:05;;;;;;;14.82;11.95;;;;;;;;;;10142102;28;20046;-71
2022/10/19 09:26:02;;;;;;;13.40;11.98;;;;;;;;;;10133776;28;20050;-71
2022/10/19 09:30:58;;;;;;;14.95;12.70;;;;;;;;;;10112765;28;20038;-71
2022/10/19 09:35:56;;;;;;;13.35;12.10;;;;;;;;;;10145221;28;20039;-71
2022/10/19 09:40:52;;;;;;;13.70;12.43;;;;;;;;;;10100175;28;20043;-70
2022/10/19 09:45:51;;;;;;;14.35;12.90;;;;;;;;;;10113374;28;20043;-71
2022/10/19 09:50:50;;;;;;;15.65;13.95;;;;;;;;;;10115725;28;20042;-71
2022/10/19 09:55:50;;;;;;;15.90;14.60;;;;;;;;;;10121010;28;20045;-71
2022/10/19 10:00:50;;;;;;;13.23;12.13;;;;;;;;;;10100233;28;20046;-71
2022/10/19 10:05:47;;;;;;;11.90;10.93;;;;;;;;;;10151351;28;20057;-71
2022/10/19 10:10:44;;;;;;;19.60;10.73;;;;;;;;;;10159397;28;20416;-71
2022/10/19 10:15:43;;;;;;;10.57;9.57;;;;;;;;;;10157094;28;20046;-71
2022/10/19 10:20:54;;;;;;;11.07;8.38;;;;;;;;;;10148931;28;20054;-71
2022/10/19 10:25:53;;;;;;;12.35;8.38;;;;;;;;;;10115113;28;20066;-71
2022/10/19 10:31:06;;;;;;;8.80;8.00;;;;;;;;;;10123182;28;20479;-71
2022/10/19 10:36:06;;;;;;;9.65;6.50;;;;;;;;;;10142429;28;20071;-70
2022/10/19 10:41:06;;;;;;;8.93;6.95;;;;;;;;;;10121176;28;20043;-71
2022/10/19 10:46:07;;;;;;;8.77;7.43;;;;;;;;;;10160903;28;20062;-71
2022/10/19 10:51:08;;;;;;;8.80;7.68;;;;;;;;;;10142876;28;20413;-71
2022/10/19 10:56:05;;;;;;;10.13;7.65;;;;;;;;;;10149692;28;20165;-71
2022/10/19 11:01:04;;;;;;;8.20;6.85;;;;;;;;;;10148704;28;20057;-70
2022/10/19 11:06:03;;;;;;;14.20;7.32;;;;;;;;;;10125233;28;20050;-71
2022/10/19 11:11:00;;;;;;;10.75;7.82;;;;;;;;;;10153123;28;20038;-71
2022/10/19 11:16:05;;;;;;;12.70;7.10;;;;;;;;;;10153022;28;20043;-71
2022/10/19 11:21:20;;;;;;;11.70;6.95;;;;;;;;;;10143746;28;20055;-70
2022/10/19 11:26:37;;;;;;;9.88;7.25;;;;;;;;;;10154405;28;20522;-70
2022/10/19 11:31:45;;;;;;;7.80;7.05;;;;;;;;;;10152955;28;20042;-71
2022/10/19 11:36:50;;;;;;;7.97;7.20;;;;;;;;;;10144800;28;20061;-71
2022/10/19 11:42:09;;;;;;;9.07;7.32;;;;;;;;;;10153216;28;20506;-71
2022/10/19 11:47:31;;;;;;;13.30;7.18;;;;;;;;;;10150993;28;20081;-70
2022/10/19 11:52:45;;;;;;;9.20;7.32;;;;;;;;;;10127764;28;20481;-70
2022/10/19 11:57:46;;;;;;;8.35;7.50;;;;;;;;;;10156217;28;20042;-70
2022/10/19 12:02:42;;;;;;;10.98;7.82;;;;;;;;;;10146783;28;20061;-70
2022/10/19 12:07:38;;;;;;;8.85;7.10;;;;;;;;;;10131358;28;20416;-70
2022/10/19 12:12:35;;;;;;;11.38;7.68;;;;;;;;;;10133221;28;20054;-70
2022/10/19 12:17:34;;;;;;;9.88;7.00;;;;;;;;;;10144998;28;20053;-70
2022/10/19 12:22:32;;;;;;;6.72;6.13;;;;;;;;;;10146385;28;20050;-70
2022/10/19 12:27:37;;;;;;;6.63;6.03;;;;;;;;;;10131212;28;20055;-70
2022/10/19 12:32:42;;;;;;;7.25;5.93;;;;;;;;;;10115020;28;20425;-70
2022/10/19 12:37:48;;;;;;;7.82;6.38;;;;;;;;;;10115305;28;20047;-71
2022/10/19 12:42:50;;;;;;;8.20;6.20;;;;;;;;;;10096213;28;20058;-70
2022/10/19 12:48:05;;;;;;;6.25;5.65;;;;;;;;;;10102159;28;20039;-71
2022/10/19 12:53:02;;;;;;;7.43;5.47;;;;;;;;;;10098956;28;20057;-70
2022/10/19 12:58:03;;;;;;;6.07;5.57;;;;;;;;;;10106070;28;20501;-70
2022/10/19 13:03:02;;;;;;;6.88;6.28;;;;;;;;;;10097260;28;20717;-70
2022/10/19 13:08:00;;;;;;;6.10;5.50;;;;;;;;;;10089471;28;20515;-70
2022/10/19 13:12:56;;;;;;;6.03;5.47;;;;;;;;;;10109475;28;20050;-70
2022/10/19 13:17:52;;;;;;;6.57;6.00;;;;;;;;;;10134042;28;20146;-70
2022/10/19 13:22:49;;;;;;;6.82;6.18;;;;;;;;;;10150428;28;20512;-70
2022/10/19 13:27:52;;;;;;;7.78;6.28;;;;;;;;;;10125022;28;20540;-70
2022/10/19 13:32:49;;;;;;;7.35;6.43;;;;;;;;;;10099436;28;20046;-70
2022/10/19 13:37:45;;;;;;;7.25;6.43;;;;;;;;;;10094360;28;20486;-70
2022/10/19 13:42:41;;;;;;;7.07;6.38;;;;;;;;;;10108047;28;20050;-70
2022/10/19 13:47:41;;;;;;;11.40;6.15;;;;;;;;;;10124704;28;20394;-71
2022/10/19 13:53:00;;;;;;;6.60;6.00;;;;;;;;;;10127457;28;20042;-70
2022/10/19 13:57:57;;;;;;;6.03;5.53;;;;;;;;;;10104664;28;20046;-70
2022/10/19 14:03:14;;;;;;;6.50;5.90;;;;;;;;;;10091128;28;20046;-70
2022/10/19 14:08:21;;;;;;;8.23;5.43;;;;;;;;;;10100947;28;20051;-70
2022/10/19 14:13:21;;;;;;;6.82;5.30;;;;;;;;;;10131500;28;20401;-70
2022/10/19 14:18:30;;;;;;;5.70;5.20;;;;;;;;;;10148727;28;20565;-70
2022/10/19 14:23:28;;;;;;;8.27;5.78;;;;;;;;;;10158803;28;20071;-69
2022/10/19 14:28:24;;;;;;;6.68;6.00;;;;;;;;;;10129548;28;20038;-70
2022/10/19 14:33:21;;;;;;;7.72;5.60;;;;;;;;;;10096333;28;20053;-70
2022/10/19 14:38:42;;;;;;;5.53;5.03;;;;;;;;;;10098148;28;20408;-70
2022/10/19 14:43:38;;;;;;;5.75;5.35;;;;;;;;;;10112409;28;20550;-70
2022/10/19 14:48:35;;;;;;;6.32;5.35;;;;;;;;;;10105305;28;20051;-70
2022/10/19 14:53:34;;;;;;;5.50;5.00;;;;;;;;;;10117197;28;20042;-70
2022/10/19 14:58:34;;;;;;;6.15;5.10;;;;;;;;;;10103988;28;20038;-70
2022/10/19 15:03:31;;;;;;;7.60;4.80;;;;;;;;;;10146834;28;20049;-69
2022/10/19 15:08:42;;;;;;;5.18;4.57;;;;;;;;;;10150899;28;20042;-69
2022/10/19 15:13:41;;;;;;;7.50;6.32;;;;;;;;;;10123549;28;20501;-69
2022/10/19 15:18:38;;;;;;;6.25;5.65;;;;;;;;;;10113553;28;20047;-69
2022/10/19 15:23:51;;;;;;;6.13;5.53;;;;;;;;;;10113697;28;20493;-69
2022/10/19 15:28:47;;;;;;;5.97;5.47;;;;;;;;;;10119111;28;20482;-69
2022/10/19 15:33:46;;;;;;;6.40;5.82;;;;;;;;;;10115488;28;20038;-69
2022/10/19 15:38:43;;;;;;;6.53;5.93;;;;;;;;;;10135303;28;20485;-70
2022/10/19 15:43:44;;;;;;;6.70;6.10;;;;;;;;;;10141300;28;20102;-71
2022/10/19 15:48:40;;;;;;;6.30;5.80;;;;;;;;;;10123844;28;20058;-71
2022/10/19 15:53:37;;;;;;;6.50;6.00;;;;;;;;;;10123899;28;20046;-71
2022/10/19 15:58:33;;;;;;;6.82;6.22;;;;;;;;;;10142784;28;20129;-71
2022/10/19 16:03:29;;;;;;;6.82;6.15;;;;;;;;;;10119251;28;20050;-72
2022/10/19 16:08:25;;;;;;;6.97;6.43;;;;;;;;;;10122672;28;20540;-71
2022/10/19 16:13:22;;;;;;;7.45;6.80;;;;;;;;;;10143522;28;20061;-71
2022/10/19 16:18:18;;;;;;;7.35;6.75;;;;;;;;;;10152211;28;20449;-72
2022/10/19 16:23:14;;;;;;;7.82;7.13;;;;;;;;;;10120686;28;20051;-71
2022/10/19 16:28:10;;;;;;;7.35;6.85;;;;;;;;;;10090878;28;20054;-71
2022/10/19 16:33:06;;;;;;;8.38;7.75;;;;;;;;;;10135931;28;20065;-71
2022/10/19 16:38:03;;;;;;;9.38;8.60;;;;;;;;;;10119074;28;20047;-71
2022/10/19 16:42:59;;;;;;;9.02;8.23;;;;;;;;;;10107303;28;20049;-70
2022/10/19 16:47:55;;;;;;;8.43;7.82;;;;;;;;;;10105857;28;20070;-71
2022/10/19 16:53:02;;;;;;;8.73;7.97;;;;;;;;;;10105543;28;20471;-71
2022/10/19 16:57:58;;;;;;;8.90;7.55;;;;;;;;;;10101994;28;20700;-71
2022/10/19 17:02:54;;;;;;;8.50;7.40;;;;;;;;;;10091517;28;20052;-71
2022/10/19 17:07:51;;;;;;;8.05;7.45;;;;;;;;;;10099907;28;20065;-71
2022/10/19 17:12:47;;;;;;;8.25;7.13;;;;;;;;;;10094134;28;20054;-71
2022/10/19 17:17:43;;;;;;;7.43;6.82;;;;;;;;;;10133267;28;20054;-71
2022/10/19 17:22:39;;;;;;;8.05;7.35;;;;;;;;;;10124773;28;20061;-71
2022/10/19 17:27:35;;;;;;;7.65;6.85;;;;;;;;;;10102738;28;20136;-71
2022/10/19 17:32:32;;;;;;;9.10;7.20;;;;;;;;;;10093950;28;20043;-71
2022/10/19 17:37:28;;;;;;;7.75;7.05;;;;;;;;;;10115400;28;20106;-71
2022/10/19 17:42:25;;;;;;;7.28;6.68;;;;;;;;;;10152846;28;20050;-71
2022/10/19 17:47:21;;;;;;;7.72;7.03;;;;;;;;;;10132216;28;20117;-71
2022/10/19 17:52:17;;;;;;;7.95;7.15;;;;;;;;;;10115410;28;20042;-71
2022/10/19 17:57:13;;;;;;;7.93;7.30;;;;;;;;;;10095253;28;20073;-71
2022/10/19 18:02:09;;;;;;;8.43;7.70;;;;;;;;;;10133484;28;20052;-71
2022/10/19 18:07:06;;;;;;;8.27;7.47;;;;;;;;;;10148685;28;20038;-71
2022/10/19 18:12:02;;;;;;;8.40;7.80;;;;;;;;;;10152699;28;20050;-71
2022/10/19 18:17:02;;;;;;;8.43;7.78;;;;;;;;;;10156285;28;20505;-71
2022/10/19 18:21:58;;;;;;;11.73;9.10;;;;;;;;;;10138087;28;20062;-71
2022/10/19 18:26:55;;;;;;;9.43;8.75;;;;;;;;;;10103554;28;20054;-70
2022/10/19 18:31:51;;;;;;;9.20;8.30;;;;;;;;;;10096780;28;20039;-70
2022/10/19 18:36:48;;;;;;;9.23;8.52;;;;;;;;;;10110038;28;20409;-70
2022/10/19 18:41:45;;;;;;;9.43;8.73;;;;;;;;;;10099238;28;20054;-70
2022/10/19 18:46:41;;;;;;;10.00;9.20;;;;;;;;;;10116380;28;20057;-70
2022/10/19 18:51:37;;;;;;;9.85;9.15;;;;;;;;;;10106630;28;20050;-69
2022/10/19 18:56:35;;;;;;;9.40;8.77;;;;;;;;;;10103415;28;20528;-69
2022/10/19 19:01:31;;;;;;;9.27;8.68;;;;;;;;;;10110178;28;20113;-69
2022/10/19 19:06:28;;;;;;;9.90;9.02;;;;;;;;;;10107779;28;20097;-69
2022/10/19 19:11:25;;;;;;;10.02;9.18;;;;;;;;;;10117986;28;20706;-69
2022/10/19 19:16:22;;;;;;;11.00;10.30;;;;;;;;;;10108477;28;20050;-69
2022/10/19 19:21:21;;;;;;;12.02;11.13;;;;;;;;;;10107714;28;20051;-69
2022/10/19 19:26:17;;;;;;;11.93;11.05;;;;;;;;;;10106344;28;20061;-69
2022/10/19 19:31:17;;;;;;;11.43;10.57;;;;;;;;;;10110701;28;20539;-69
2022/10/19 19:36:14;;;;;;;12.10;10.90;;;;;;;;;;10103950;28;20145;-69
2022/10/19 19:41:12;;;;;;;12.45;11.65;;;;;;;;;;10106906;28;20069;-69
2022/10/19 19:46:13;;;;;;;12.77;11.77;;;;;;;;;;10101489;28;20042;-69
2022/10/19 19:51:14;;;;;;;13.32;12.43;;;;;;;;;;10140232;28;20055;-69
2022/10/19 19:56:11;;;;;;;13.40;12.18;;;;;;;;;;10117288;28;20047;-68
2022/10/19 20:01:08;;;;;;;13.30;12.45;;;;;;;;;;10122993;28;20046;-68
2022/10/19 20:06:09;;;;;;;13.52;12.63;;;;;;;;;;10151416;28;20062;-71
2022/10/19 20:11:07;;;;;;;14.02;12.98;;;;;;;;;;10139796;28;20061;-70
2022/10/19 20:16:11;;;;;;;13.38;12.48;;;;;;;;;;10147461;28;20516;-68
2022/10/19 20:21:08;;;;;;;13.07;12.13;;;;;;;;;;10147286;28;20046;-70
2022/10/19 20:26:05;;;;;;;14.63;13.50;;;;;;;;;;10137675;28;20057;-68
2022/10/19 20:31:02;;;;;;;13.35;12.55;;;;;;;;;;10136533;28;20058;-70
2022/10/19 20:36:08;;;;;;;13.15;12.00;;;;;;;;;;10145997;28;20056;-70
2022/10/19 20:41:06;;;;;;;14.30;13.30;;;;;;;;;;10146171;28;20050;-69
2022/10/19 20:46:04;;;;;;;14.00;13.10;;;;;;;;;;10148841;28;20097;-71
2022/10/19 20:51:14;;;;;;;12.98;12.18;;;;;;;;;;10151518;28;20064;-70
2022/10/19 20:56:11;;;;;;;13.30;12.27;;;;;;;;;;10153557;28;20050;-70
2022/10/19 21:01:09;;;;;;;13.32;12.52;;;;;;;;;;10150550;28;20043;-70
2022/10/19 21:06:06;;;;;;;13.85;12.85;;;;;;;;;;10152535;28;20459;-70
2022/10/19 21:11:16;;;;;;;14.38;13.32;;;;;;;;;;10143890;28;20061;-71
2022/10/19 21:16:13;;;;;;;13.82;12.80;;;;;;;;;;10144982;28;20412;-71
2022/10/19 21:21:16;;;;;;;14.48;13.63;;;;;;;;;;10152062;28;20046;-70
2022/10/19 21:26:13;;;;;;;14.82;13.70;;;;;;;;;;10150969;28;20054;-71
2022/10/19 21:31:09;;;;;;;16.45;15.15;;;;;;;;;;10139540;28;20128;-70
2022/10/19 21:36:06;;;;;;;16.38;15.38;;;;;;;;;;10146932;28;20057;-70
2022/10/19 21:41:04;;;;;;;16.10;15.20;;;;;;;;;;10147180;28;20046;-70
2022/10/19 21:46:03;;;;;;;16.33;15.32;;;;;;;;;;10155837;28;20050;-70
2022/10/19 21:51:08;;;;;;;18.08;16.58;;;;;;;;;;10158204;28;20057;-70
2022/10/19 21:56:05;;;;;;;16.65;15.55;;;;;;;;;;10151247;28;20051;-70
2022/10/19 22:01:05;;;;;;;17.73;16.63;;;;;;;;;;10134804;28;20047;-70
2022/10/19 22:06:01;;;;;;;17.65;16.45;;;;;;;;;;10117449;28;20409;-71
2022/10/19 22:11:02;;;;;;;18.15;17.10;;;;;;;;;;10122042;28;20528;-70
2022/10/19 22:16:09;;;;;;;18.90;17.60;;;;;;;;;;10142216;28;20047;-71
2022/10/19 22:21:07;;;;;;;18.15;16.83;;;;;;;;;;10111071;28;20051;-70
2022/10/19 22:26:11;;;;;;;18.90;17.80;;;;;;;;;;10100518;28;20042;-70
2022/10/19 22:31:07;;;;;;;19.70;18.60;;;;;;;;;;10109986;28;20047;-70
2022/10/19 22:36:05;;;;;;;17.65;16.65;;;;;;;;;;10123286;28;20054;-71
2022/10/19 22:41:01;;;;;;;20.63;19.27;;;;;;;;;;10112536;28;20056;-70
2022/10/19 22:45:58;;;;;;;19.83;18.70;;;;;;;;;;10124916;28;20049;-70
2022/10/19 22:50:54;;;;;;;21.10;19.67;;;;;;;;;;10149293;28;20049;-70
2022/10/19 22:55:50;;;;;;;22.80;21.45;;;;;;;;;;10146551;28;20042;-70
2022/10/19 23:00:57;;;;;;;20.45;19.30;;;;;;;;;;10147933;28;20053;-70
2022/10/19 23:05:53;;;;;;;21.13;19.85;;;;;;;;;;10125497;28;20509;-70
2022/10/19 23:10:49;;;;;;;21.33;20.13;;;;;;;;;;10103786;28;20694;-70
2022/10/19 23:15:46;;;;;;;21.65;20.25;;;;;;;;;;10110112;28;20062;-70
2022/10/19 23:20:42;;;;;;;23.17;21.88;;;;;;;;;;10113307;28;20042;-70
2022/10/19 23:25:38;;;;;;;21.65;20.45;;;;;;;;;;10109732;28;20043;-70
2022/10/19 23:30:36;;;;;;;22.08;20.83;;;;;;;;;;10113408;28;20049;-70
2022/10/19 23:35:32;;;;;;;24.08;22.35;;;;;;;;;;10115947;28;20042;-70
2022/10/19 23:40:28;;;;;;;25.75;24.10;;;;;;;;;;10111006;28;20042;-70
2022/10/19 23:45:24;;;;;;;26.15;24.55;;;;;;;;;;10102748;28;20047;-70
2022/10/19 23:50:21;;;;;;;27.30;25.70;;;;;;;;;;10105425;28;20058;-70
2022/10/19 23:55:17;;;;;;;29.15;27.50;;;;;;;;;;10116767;28;20039;-70
